createdAt,value
2024-02-28T00:01:17.014Z,23.45
2024-02-28T00:03:44.597Z,20.45
2024-02-28T00:06:11.127Z,21.58
2024-02-28T00:08:38.719Z,19.13
2024-02-28T00:11:05.158Z,23.23
2024-02-28T00:13:31.585Z,22.45
2024-02-28T00:15:59.060Z,22.00
2024-02-28T00:18:26.700Z,19.52
2024-02-28T00:20:53.198Z,19.92
2024-02-28T00:23:19.562Z,21.05
2024-02-28T00:25:47.038Z,23.58
2024-02-28T00:28:13.451Z,21.75
2024-02-28T00:30:40.985Z,20.75
2024-02-28T00:33:07.617Z,23.42
2024-02-28T00:35:35.164Z,20.77
2024-02-28T00:38:03.084Z,17.63
2024-02-28T00:40:29.810Z,17.17
2024-02-28T00:42:57.354Z,18.73
2024-02-28T00:45:23.835Z,20.63
2024-02-28T00:47:50.343Z,19.38
2024-02-28T00:50:17.889Z,19.10
2024-02-28T00:52:44.329Z,18.00
2024-02-28T00:55:11.833Z,17.40
2024-02-28T00:57:38.270Z,20.37
2024-02-28T01:00:06.023Z,17.67
2024-02-28T01:02:32.956Z,18.58
2024-02-28T01:05:00.431Z,20.98
2024-02-28T01:07:27.935Z,18.25
2024-02-28T01:09:54.654Z,20.63
2024-02-28T01:12:21.135Z,19.20
2024-02-28T01:14:48.634Z,20.50
2024-02-28T01:17:15.029Z,14.88
2024-02-28T01:19:42.454Z,19.20
2024-02-28T01:22:08.857Z,20.40
2024-02-28T01:24:35.351Z,17.07
2024-02-28T01:27:03.099Z,18.92
2024-02-28T01:29:30.665Z,16.38
2024-02-28T01:31:57.207Z,16.63
2024-02-28T01:34:24.750Z,15.85
2024-02-28T01:36:51.286Z,18.50
2024-02-28T01:39:18.831Z,14.15
2024-02-28T01:41:55.814Z,17.13
2024-02-28T01:44:23.660Z,16.45
2024-02-28T01:46:51.522Z,17.83
2024-02-28T01:49:19.130Z,18.63
2024-02-28T01:51:46.069Z,14.27
2024-02-28T01:54:12.585Z,18.42
2024-02-28T01:56:41.737Z,17.25
2024-02-28T01:59:08.236Z,12.63
2024-02-28T02:01:34.698Z,15.30
2024-02-28T02:04:02.182Z,15.63
2024-02-28T02:06:28.694Z,16.42
2024-02-28T02:08:55.589Z,14.93
2024-02-28T02:11:23.708Z,18.02
2024-02-28T02:13:50.585Z,14.30
2024-02-28T02:16:18.206Z,14.93
2024-02-28T02:18:44.676Z,18.27
2024-02-28T02:21:13.695Z,14.52
2024-02-28T02:23:40.085Z,15.52
2024-02-28T02:26:07.643Z,11.35
2024-02-28T02:28:35.179Z,17.35
2024-02-28T02:31:01.703Z,14.88
2024-02-28T02:33:29.191Z,15.82
2024-02-28T02:35:55.665Z,17.17
2024-02-28T02:38:22.061Z,17.13
2024-02-28T02:40:53.195Z,16.70
2024-02-28T02:43:19.617Z,13.30
2024-02-28T02:45:47.203Z,15.23
2024-02-28T02:48:13.668Z,15.13
2024-02-28T02:50:41.128Z,16.70
2024-02-28T02:53:10.145Z,15.23
2024-02-28T02:55:37.628Z,13.67
2024-02-28T02:58:04.108Z,16.70
2024-02-28T03:00:31.691Z,17.20
2024-02-28T03:02:58.124Z,18.70
2024-02-28T03:05:25.594Z,16.80
2024-02-28T03:07:52.030Z,18.13
2024-02-28T03:10:19.506Z,17.02
2024-02-28T03:12:45.939Z,16.73
2024-02-28T03:15:13.474Z,17.77
2024-02-28T03:17:40.956Z,18.23
2024-02-28T03:20:07.594Z,14.57
2024-02-28T03:22:35.065Z,17.15
2024-02-28T03:25:01.501Z,16.30
2024-02-28T03:27:29.072Z,13.32
2024-02-28T03:29:55.478Z,14.80
2024-02-28T03:32:21.907Z,17.73
2024-02-28T03:34:49.323Z,17.48
2024-02-28T03:37:16.849Z,15.90
2024-02-28T03:39:43.343Z,17.98
2024-02-28T03:42:10.696Z,18.17
2024-02-28T03:44:38.181Z,17.88
2024-02-28T03:47:04.701Z,16.63
2024-02-28T03:49:32.198Z,16.63
2024-02-28T03:51:59.732Z,14.45
2024-02-28T03:54:26.200Z,13.77
2024-02-28T03:56:53.689Z,16.90
2024-02-28T03:59:21.157Z,15.05
2024-02-28T04:01:47.594Z,14.40
2024-02-28T04:04:14.086Z,15.15
2024-02-28T04:06:41.592Z,14.40
2024-02-28T04:09:08.026Z,18.50
2024-02-28T04:11:34.646Z,13.45
2024-02-28T04:14:02.108Z,15.52
2024-02-28T04:16:28.495Z,14.63
2024-02-28T04:18:56.200Z,16.00
2024-02-28T04:21:22.734Z,16.10
2024-02-28T04:23:49.202Z,14.90
2024-02-28T04:26:16.698Z,15.77
2024-02-28T04:28:43.572Z,16.63
2024-02-28T04:31:11.073Z,14.65
2024-02-28T04:33:38.684Z,16.38
2024-02-28T04:36:06.213Z,18.00
2024-02-28T04:38:33.656Z,20.52
2024-02-28T04:41:00.036Z,15.13
2024-02-28T04:43:26.415Z,17.92
2024-02-28T04:45:53.903Z,14.80
2024-02-28T04:48:20.416Z,15.38
2024-02-28T04:50:47.937Z,16.73
2024-02-28T04:53:14.367Z,15.63
2024-02-28T04:55:40.842Z,15.73
2024-02-28T04:58:08.301Z,15.63
2024-02-28T05:00:34.806Z,16.30
2024-02-28T05:03:01.251Z,16.88
2024-02-28T05:05:28.758Z,17.15
2024-02-28T05:07:55.142Z,15.45
2024-02-28T05:10:21.792Z,11.85
2024-02-28T05:12:49.361Z,13.47
2024-02-28T05:15:15.976Z,14.98
2024-02-28T05:17:42.457Z,13.50
2024-02-28T05:20:10.134Z,18.58
2024-02-28T05:22:36.533Z,15.93
2024-02-28T05:25:04.110Z,14.70
2024-02-28T05:27:30.581Z,20.38
2024-02-28T05:29:56.994Z,13.52
2024-02-28T05:32:24.540Z,17.10
2024-02-28T05:34:50.938Z,15.02
2024-02-28T05:37:18.649Z,15.20
2024-02-28T05:39:45.076Z,14.05
2024-02-28T05:42:11.520Z,15.52
2024-02-28T05:44:38.959Z,16.80
2024-02-28T05:47:05.553Z,14.07
2024-02-28T05:49:33.083Z,15.10
2024-02-28T05:52:00.637Z,15.52
2024-02-28T05:54:30.778Z,16.45
2024-02-28T05:57:00.770Z,16.97
2024-02-28T05:59:27.200Z,15.38
2024-02-28T06:01:53.636Z,13.65
2024-02-28T06:04:21.091Z,16.23
2024-02-28T06:06:47.483Z,16.67
2024-02-28T06:09:14.970Z,15.83
2024-02-28T06:11:41.420Z,15.48
2024-02-28T06:14:08.838Z,17.47
2024-02-28T06:16:35.248Z,16.60
2024-02-28T06:19:06.059Z,16.47
2024-02-28T06:21:34.131Z,17.02
2024-02-28T06:24:00.688Z,15.03
2024-02-28T06:26:28.157Z,15.90
2024-02-28T06:28:54.593Z,14.63
2024-02-28T06:31:20.970Z,15.07
2024-02-28T06:33:48.491Z,13.60
2024-02-28T06:36:15.006Z,14.70
2024-02-28T06:38:42.504Z,16.03
2024-02-28T06:41:08.946Z,14.57
2024-02-28T06:43:36.685Z,13.50
2024-02-28T06:46:04.472Z,14.80
2024-02-28T06:48:30.893Z,13.15
2024-02-28T06:50:57.619Z,13.20
2024-02-28T06:53:25.204Z,15.63
2024-02-28T06:55:51.611Z,18.48
2024-02-28T06:58:18.010Z,15.07
2024-02-28T07:00:45.587Z,12.77
2024-02-28T07:03:13.137Z,14.13
2024-02-28T07:05:39.656Z,17.83
2024-02-28T07:08:07.371Z,15.17
2024-02-28T07:10:34.907Z,15.02
2024-02-28T07:13:02.456Z,15.02
2024-02-28T07:15:29.060Z,15.20
2024-02-28T07:17:56.666Z,16.70
2024-02-28T07:20:23.098Z,13.93
2024-02-28T07:22:50.592Z,15.35
2024-02-28T07:25:18.493Z,15.93
2024-02-28T07:27:48.307Z,16.83
2024-02-28T07:30:14.844Z,16.55
2024-02-28T07:32:42.300Z,18.45
2024-02-28T07:35:09.028Z,15.52
2024-02-28T07:37:36.472Z,16.55
2024-02-28T07:40:03.045Z,14.00
2024-02-28T07:42:29.541Z,16.67
2024-02-28T07:44:57.029Z,15.37
2024-02-28T07:47:25.045Z,14.50
2024-02-28T07:49:52.934Z,16.70
2024-02-28T07:52:19.355Z,13.80
2024-02-28T07:54:46.833Z,17.10
2024-02-28T07:57:14.357Z,18.27
2024-02-28T07:59:42.424Z,16.00
2024-02-28T08:02:09.240Z,19.67
2024-02-28T08:04:37.834Z,17.90
2024-02-28T08:07:04.524Z,15.68
2024-02-28T08:09:31.079Z,18.38
2024-02-28T08:11:58.664Z,15.05
2024-02-28T08:14:25.041Z,10.52
2024-02-28T08:16:52.572Z,14.25
2024-02-28T08:19:19.148Z,8.13
2024-02-28T08:21:46.863Z,8.88
2024-02-28T08:24:14.989Z,5.27
2024-02-28T08:26:41.455Z,3.58
2024-02-28T08:29:07.865Z,2.28
2024-02-28T08:31:35.392Z,1.15
2024-02-28T08:34:01.819Z,2.08
2024-02-28T08:36:29.382Z,1.60
2024-02-28T08:38:55.858Z,0.75
2024-02-28T08:41:23.349Z,2.28
2024-02-28T08:43:50.871Z,0.85
2024-02-28T08:46:17.389Z,0.90
2024-02-28T08:48:45.036Z,0.93
2024-02-28T08:51:11.439Z,1.40
2024-02-28T08:53:39.190Z,0.68
2024-02-28T08:56:06.769Z,0.82
2024-02-28T08:58:33.213Z,0.50
2024-02-28T09:00:59.837Z,0.82
2024-02-28T09:03:27.388Z,0.73
2024-02-28T09:05:53.890Z,1.00
2024-02-28T09:08:21.399Z,1.20
2024-02-28T09:10:47.760Z,0.85
2024-02-28T09:13:14.431Z,0.90
2024-02-28T09:15:41.997Z,0.82
2024-02-28T09:18:08.577Z,0.67
2024-02-28T09:20:36.104Z,1.00
2024-02-28T09:23:02.536Z,1.05
2024-02-28T09:25:29.412Z,0.98
2024-02-28T09:27:57.054Z,0.60
2024-02-28T09:30:24.566Z,1.17
2024-02-28T09:32:51.974Z,0.30
2024-02-28T09:35:19.455Z,3.10
2024-02-28T09:37:46.962Z,1.13
2024-02-28T09:40:13.408Z,0.77
2024-02-28T09:42:40.237Z,1.35
2024-02-28T09:45:10.291Z,3.55
2024-02-28T09:47:36.757Z,1.73
2024-02-28T09:50:03.796Z,1.35
2024-02-28T09:52:31.310Z,1.13
2024-02-28T09:54:58.064Z,1.05
2024-02-28T09:57:24.530Z,0.63
2024-02-28T09:59:54.766Z,1.02
2024-02-28T10:02:24.564Z,0.50
2024-02-28T10:04:52.287Z,1.38
2024-02-28T10:07:18.702Z,1.00
2024-02-28T10:09:45.243Z,0.40
2024-02-28T10:12:12.773Z,0.50
2024-02-28T10:14:39.242Z,0.88
2024-02-28T10:17:07.133Z,2.67
2024-02-28T10:19:33.616Z,1.55
2024-02-28T10:22:03.170Z,0.73
2024-02-28T10:24:29.787Z,2.20
2024-02-28T10:26:56.674Z,0.50
2024-02-28T10:29:27.456Z,0.68
2024-02-28T10:31:53.916Z,2.25
2024-02-28T10:34:21.500Z,0.50
2024-02-28T10:36:48.427Z,0.35
2024-02-28T10:39:15.251Z,1.00
2024-02-28T10:41:43.139Z,0.30
2024-02-28T10:44:09.763Z,1.00
2024-02-28T10:46:37.248Z,0.65
2024-02-28T10:49:05.345Z,0.40
2024-02-28T10:51:33.958Z,0.90
2024-02-28T10:54:11.314Z,0.60
2024-02-28T10:56:38.182Z,1.10
2024-02-28T10:59:08.083Z,1.08
2024-02-28T11:01:39.477Z,0.40
2024-02-28T11:04:07.096Z,1.08
2024-02-28T11:06:34.615Z,0.40
2024-02-28T11:09:01.618Z,0.93
2024-02-28T11:11:36.303Z,1.50
2024-02-28T11:14:02.688Z,2.90
2024-02-28T11:16:31.011Z,2.50
2024-02-28T11:18:57.704Z,2.60
2024-02-28T11:21:24.848Z,1.33
2024-02-28T11:23:52.296Z,1.75
2024-02-28T11:26:18.833Z,0.50
2024-02-28T11:28:46.274Z,0.77
2024-02-28T11:31:12.690Z,1.42
2024-02-28T11:33:40.293Z,0.50
2024-02-28T11:36:06.996Z,0.30
2024-02-28T11:38:35.603Z,1.20
2024-02-28T11:41:03.057Z,0.60
2024-02-28T11:43:30.671Z,1.20
2024-02-28T11:45:58.342Z,0.43
2024-02-28T11:48:26.912Z,0.70
2024-02-28T11:50:54.669Z,0.40
2024-02-28T11:53:21.232Z,0.80
2024-02-28T11:55:48.712Z,0.30
2024-02-28T11:58:16.877Z,0.32
2024-02-28T12:00:50.406Z,0.57
2024-02-28T12:03:27.351Z,0.30
2024-02-28T12:05:53.997Z,0.77
2024-02-28T12:08:20.507Z,0.60
2024-02-28T12:10:48.435Z,0.70
2024-02-28T12:13:21.263Z,1.10
2024-02-28T12:15:50.015Z,0.40
2024-02-28T12:18:16.646Z,1.20
2024-02-28T12:20:44.294Z,1.53
2024-02-28T12:23:10.707Z,0.63
2024-02-28T12:25:38.660Z,1.02
2024-02-28T12:28:05.363Z,0.80
2024-02-28T12:30:33.223Z,1.10
2024-02-28T12:32:59.652Z,0.85
2024-02-28T12:35:26.054Z,1.27
2024-02-28T12:37:53.563Z,0.60
2024-02-28T12:40:19.983Z,1.88
2024-02-28T12:42:46.501Z,1.08
2024-02-28T12:45:13.944Z,0.90
2024-02-28T12:47:40.540Z,0.40
2024-02-28T12:50:08.292Z,1.30
2024-02-28T12:52:34.948Z,0.77
2024-02-28T12:55:01.372Z,1.40
2024-02-28T12:57:28.867Z,2.10
2024-02-28T12:59:55.265Z,1.50
2024-02-28T13:02:22.735Z,2.00
2024-02-28T13:04:49.211Z,1.50
2024-02-28T13:07:16.860Z,0.85
2024-02-28T13:09:43.263Z,1.80
2024-02-28T13:12:10.846Z,1.47
2024-02-28T13:14:37.290Z,2.65
2024-02-28T13:17:04.866Z,1.80
2024-02-28T13:19:32.938Z,1.80
2024-02-28T13:21:59.340Z,1.58
2024-02-28T13:24:25.844Z,1.55
2024-02-28T13:26:53.328Z,1.13
2024-02-28T13:29:19.763Z,0.88
2024-02-28T13:31:47.326Z,1.50
2024-02-28T13:34:18.669Z,1.60
2024-02-28T13:36:47.271Z,1.10
2024-02-28T13:39:13.710Z,1.20
2024-02-28T13:41:40.539Z,1.43
2024-02-28T13:44:08.013Z,1.05
2024-02-28T13:46:34.452Z,1.83
2024-02-28T13:49:00.893Z,1.30
2024-02-28T13:51:28.658Z,0.95
2024-02-28T13:53:55.118Z,0.90
2024-02-28T13:56:21.585Z,1.33
2024-02-28T13:58:53.345Z,1.25
2024-02-28T14:01:21.023Z,1.02
2024-02-28T14:03:48.678Z,1.42
2024-02-28T14:06:15.245Z,1.80
2024-02-28T14:08:43.568Z,1.30
2024-02-28T14:11:11.818Z,1.40
2024-02-28T14:13:38.402Z,1.00
2024-02-28T14:16:05.110Z,1.13
2024-02-28T14:18:32.732Z,1.38
2024-02-28T14:20:59.167Z,2.10
2024-02-28T14:23:26.609Z,1.30
2024-02-28T14:25:52.976Z,1.40
2024-02-28T14:28:20.602Z,3.70
2024-02-28T14:30:47.211Z,1.50
2024-02-28T14:33:15.032Z,0.70
2024-02-28T14:35:42.910Z,1.52
2024-02-28T14:38:10.393Z,1.65
2024-02-28T14:40:36.808Z,3.20
2024-02-28T14:43:04.319Z,3.20
2024-02-28T14:45:30.830Z,2.53
2024-02-28T14:47:57.293Z,2.40
2024-02-28T14:50:24.819Z,1.88
2024-02-28T14:52:51.218Z,2.20
2024-02-28T14:57:53.836Z,3.60
2024-02-28T15:00:20.431Z,2.90
2024-02-28T15:02:47.990Z,2.58
2024-02-28T15:05:14.575Z,2.45
2024-02-28T15:07:41.813Z,2.77
2024-02-28T15:10:09.768Z,3.35
2024-02-28T15:12:36.355Z,4.70
2024-02-28T15:15:04.072Z,2.47
2024-02-28T15:17:31.723Z,2.00
2024-02-28T15:19:58.130Z,2.85
2024-02-28T15:22:24.530Z,2.20
2024-02-28T15:24:51.997Z,1.98
2024-02-28T15:27:18.419Z,1.90
2024-02-28T15:29:45.851Z,1.67
2024-02-28T15:32:13.300Z,1.60
2024-02-28T15:34:39.748Z,3.95
2024-02-28T15:37:06.395Z,2.38
2024-02-28T15:39:34.043Z,1.90
2024-02-28T15:42:00.499Z,1.90
2024-02-28T15:44:27.988Z,2.63
2024-02-28T15:46:55.436Z,1.50
2024-02-28T15:49:28.973Z,1.40
2024-02-28T15:52:04.859Z,2.50
2024-02-28T15:54:32.364Z,2.00
2024-02-28T15:56:58.838Z,1.55
2024-02-28T15:59:25.265Z,2.13
2024-02-28T16:01:53.170Z,3.05
2024-02-28T16:04:19.711Z,1.97
2024-02-28T16:06:47.179Z,2.10
2024-02-28T16:09:14.742Z,2.03
2024-02-28T16:11:44.173Z,2.03
2024-02-28T16:14:11.020Z,1.70
2024-02-28T16:16:47.665Z,3.28
2024-02-28T16:19:22.120Z,3.20
2024-02-28T16:21:54.429Z,3.13
2024-02-28T16:24:20.915Z,3.53
2024-02-28T16:26:48.362Z,4.75
2024-02-28T16:29:14.882Z,6.57
2024-02-28T16:31:41.523Z,2.95
2024-02-28T16:34:09.044Z,3.47
2024-02-28T16:36:35.461Z,2.78
2024-02-28T16:39:02.948Z,3.65
2024-02-28T16:41:29.363Z,2.20
2024-02-28T16:43:56.833Z,2.58
2024-02-28T16:46:23.322Z,2.58
2024-02-28T16:48:50.880Z,1.87
2024-02-28T16:51:17.271Z,1.70
2024-02-28T16:53:43.708Z,1.40
2024-02-28T17:13:19.971Z,3.13
2024-02-28T17:15:46.465Z,2.67
2024-02-28T17:18:12.947Z,1.90
2024-02-28T17:20:40.449Z,2.27
2024-02-28T17:37:48.114Z,3.45
2024-02-28T17:52:31.809Z,2.10
2024-02-28T17:54:58.231Z,3.00
2024-02-28T17:57:24.704Z,2.83
2024-02-28T17:59:52.292Z,2.20
2024-02-28T18:02:18.691Z,2.55
2024-02-28T18:04:45.089Z,3.90
2024-02-28T18:07:12.587Z,2.30
2024-02-28T18:09:39.179Z,2.47
2024-02-28T18:53:44.078Z,2.78
2024-02-28T18:58:40.696Z,3.08
2024-02-28T19:01:07.182Z,2.75
2024-02-28T19:13:22.140Z,2.65
2024-02-28T19:32:56.207Z,2.65
2024-02-28T19:35:23.725Z,2.78
2024-02-28T19:37:50.145Z,3.17
2024-02-28T19:40:16.702Z,3.15
2024-02-28T19:42:45.288Z,2.87
2024-02-28T19:45:11.882Z,2.93
2024-02-28T19:47:38.368Z,2.85
2024-02-28T19:50:06.004Z,4.35
2024-02-28T19:52:32.439Z,4.25
2024-02-28T19:54:59.999Z,4.82
2024-02-28T19:57:26.725Z,3.78
2024-02-28T19:59:54.234Z,2.85
2024-02-28T20:04:48.041Z,4.15
2024-02-28T20:09:41.886Z,3.95
2024-02-28T20:12:08.589Z,3.35
2024-02-28T20:14:35.432Z,3.00
2024-02-28T20:17:14.953Z,2.33
2024-02-28T20:19:41.424Z,3.65
2024-02-28T20:22:07.838Z,3.22
2024-02-28T20:24:35.391Z,3.25
2024-02-28T20:27:01.853Z,2.35
2024-02-28T20:46:38.199Z,1.77
2024-02-28T21:01:19.494Z,1.08
2024-02-28T21:38:00.556Z,2.92
2024-02-28T21:40:28.058Z,1.77
2024-02-28T21:42:56.270Z,2.10
2024-02-28T21:45:22.712Z,2.30
2024-02-28T21:47:49.198Z,2.60
2024-02-28T21:57:36.733Z,0.70
2024-02-28T22:00:04.628Z,1.92
2024-02-28T22:02:31.029Z,3.22
2024-02-28T22:04:58.543Z,3.15
2024-02-28T22:07:24.981Z,2.03
2024-02-28T22:09:52.548Z,2.35
2024-02-28T22:19:40.209Z,4.18
2024-02-28T22:22:07.673Z,3.88
2024-02-28T22:24:34.144Z,6.50
2024-02-28T22:27:01.599Z,6.55
2024-02-28T22:29:28.006Z,6.53
2024-02-28T22:31:55.454Z,7.10
2024-02-28T22:34:21.899Z,8.85
2024-02-28T23:38:03.421Z,14.18
2024-02-28T23:57:37.446Z,11.25
